sensor_id;sensor_type;location;lat;lon;timestamp;temperature;humidity
54540;SHT30;40438;52.992;18.604;2023-04-15T00:00:58;10.74;72.20
54540;SHT30;40438;52.992;18.604;2023-04-15T00:03:24;10.68;72.41
54540;SHT30;40438;52.992;18.604;2023-04-15T00:05:50;10.67;72.48
54540;SHT30;40438;52.992;18.604;2023-04-15T00:08:16;10.65;72.59
54540;SHT30;40438;52.992;18.604;2023-04-15T00:10:41;10.65;72.63
54540;SHT30;40438;52.992;18.604;2023-04-15T00:13:07;10.62;72.79
54540;SHT30;40438;52.992;18.604;2023-04-15T00:15:34;10.60;72.94
54540;SHT30;40438;52.992;18.604;2023-04-15T00:18:00;10.55;73.07
54540;SHT30;40438;52.992;18.604;2023-04-15T00:20:26;10.55;73.20
54540;SHT30;40438;52.992;18.604;2023-04-15T00:22:52;10.52;73.33
54540;SHT30;40438;52.992;18.604;2023-04-15T00:25:17;10.52;73.45
54540;SHT30;40438;52.992;18.604;2023-04-15T00:27:43;10.47;73.66
54540;SHT30;40438;52.992;18.604;2023-04-15T00:30:09;10.51;73.65
54540;SHT30;40438;52.992;18.604;2023-04-15T00:32:37;10.47;73.76
54540;SHT30;40438;52.992;18.604;2023-04-15T00:35:03;10.47;73.84
54540;SHT30;40438;52.992;18.604;2023-04-15T00:37:29;10.42;73.96
54540;SHT30;40438;52.992;18.604;2023-04-15T00:39:55;10.44;73.93
54540;SHT30;40438;52.992;18.604;2023-04-15T00:42:22;10.44;74.03
54540;SHT30;40438;52.992;18.604;2023-04-15T00:44:49;10.41;74.08
54540;SHT30;40438;52.992;18.604;2023-04-15T00:47:15;10.40;74.06
54540;SHT30;40438;52.992;18.604;2023-04-15T00:49:43;10.40;74.05
54540;SHT30;40438;52.992;18.604;2023-04-15T00:52:09;10.40;74.11
54540;SHT30;40438;52.992;18.604;2023-04-15T00:54:34;10.40;74.22
54540;SHT30;40438;52.992;18.604;2023-04-15T00:57:00;10.34;74.28
54540;SHT30;40438;52.992;18.604;2023-04-15T00:59:26;10.34;74.44
54540;SHT30;40438;52.992;18.604;2023-04-15T01:01:53;10.31;74.53
54540;SHT30;40438;52.992;18.604;2023-04-15T01:04:19;10.28;74.65
54540;SHT30;40438;52.992;18.604;2023-04-15T01:06:46;10.24;74.78
54540;SHT30;40438;52.992;18.604;2023-04-15T01:09:12;10.23;74.85
54540;SHT30;40438;52.992;18.604;2023-04-15T01:11:38;10.21;74.92
54540;SHT30;40438;52.992;18.604;2023-04-15T01:14:04;10.21;75.08
54540;SHT30;40438;52.992;18.604;2023-04-15T01:16:30;10.24;74.94
54540;SHT30;40438;52.992;18.604;2023-04-15T01:18:56;10.20;75.07
54540;SHT30;40438;52.992;18.604;2023-04-15T01:21:22;10.18;75.13
54540;SHT30;40438;52.992;18.604;2023-04-15T01:23:50;10.18;75.12
54540;SHT30;40438;52.992;18.604;2023-04-15T01:26:17;10.18;75.15
54540;SHT30;40438;52.992;18.604;2023-04-15T01:28:44;10.20;75.21
54540;SHT30;40438;52.992;18.604;2023-04-15T01:31:12;10.16;75.24
54540;SHT30;40438;52.992;18.604;2023-04-15T01:33:38;10.14;75.34
54540;SHT30;40438;52.992;18.604;2023-04-15T01:36:06;10.14;75.35
54540;SHT30;40438;52.992;18.604;2023-04-15T01:38:33;10.14;75.32
54540;SHT30;40438;52.992;18.604;2023-04-15T01:40:59;10.13;75.31
54540;SHT30;40438;52.992;18.604;2023-04-15T01:43:26;10.13;75.32
54540;SHT30;40438;52.992;18.604;2023-04-15T01:45:52;10.13;75.38
54540;SHT30;40438;52.992;18.604;2023-04-15T01:48:18;10.13;75.43
54540;SHT30;40438;52.992;18.604;2023-04-15T01:50:44;10.10;75.31
54540;SHT30;40438;52.992;18.604;2023-04-15T01:53:10;10.16;75.30
54540;SHT30;40438;52.992;18.604;2023-04-15T01:55:35;10.18;75.20
54540;SHT30;40438;52.992;18.604;2023-04-15T01:58:01;10.17;75.22
54540;SHT30;40438;52.992;18.604;2023-04-15T02:00:29;10.18;75.21
54540;SHT30;40438;52.992;18.604;2023-04-15T02:02:54;10.17;75.19
54540;SHT30;40438;52.992;18.604;2023-04-15T02:05:24;10.20;75.22
54540;SHT30;40438;52.992;18.604;2023-04-15T02:07:50;10.20;75.18
54540;SHT30;40438;52.992;18.604;2023-04-15T02:10:16;10.20;75.11
54540;SHT30;40438;52.992;18.604;2023-04-15T02:12:42;10.26;75.06
54540;SHT30;40438;52.992;18.604;2023-04-15T02:15:08;10.26;75.10
54540;SHT30;40438;52.992;18.604;2023-04-15T02:17:36;10.28;75.03
54540;SHT30;40438;52.992;18.604;2023-04-15T02:20:02;10.31;74.97
54540;SHT30;40438;52.992;18.604;2023-04-15T02:22:30;10.35;74.91
54540;SHT30;40438;52.992;18.604;2023-04-15T02:24:56;10.37;74.82
54540;SHT30;40438;52.992;18.604;2023-04-15T02:27:22;10.40;74.73
54540;SHT30;40438;52.992;18.604;2023-04-15T02:29:49;10.42;74.61
54540;SHT30;40438;52.992;18.604;2023-04-15T02:32:15;10.44;74.62
54540;SHT30;40438;52.992;18.604;2023-04-15T02:34:42;10.44;74.67
54540;SHT30;40438;52.992;18.604;2023-04-15T02:37:10;10.48;74.55
54540;SHT30;40438;52.992;18.604;2023-04-15T02:39:36;10.47;74.53
54540;SHT30;40438;52.992;18.604;2023-04-15T02:42:01;10.49;74.67
54540;SHT30;40438;52.992;18.604;2023-04-15T02:44:27;10.54;74.54
54540;SHT30;40438;52.992;18.604;2023-04-15T02:46:57;10.55;74.43
54540;SHT30;40438;52.992;18.604;2023-04-15T02:49:23;10.57;74.48
54540;SHT30;40438;52.992;18.604;2023-04-15T02:51:51;10.54;74.55
54540;SHT30;40438;52.992;18.604;2023-04-15T02:54:18;10.57;74.52
54540;SHT30;40438;52.992;18.604;2023-04-15T02:56:44;10.57;74.53
54540;SHT30;40438;52.992;18.604;2023-04-15T02:59:11;10.60;74.50
54540;SHT30;40438;52.992;18.604;2023-04-15T03:01:37;10.58;74.61
54540;SHT30;40438;52.992;18.604;2023-04-15T03:04:02;10.61;74.48
54540;SHT30;40438;52.992;18.604;2023-04-15T03:06:28;10.60;74.54
54540;SHT30;40438;52.992;18.604;2023-04-15T03:08:56;10.58;74.61
54540;SHT30;40438;52.992;18.604;2023-04-15T03:11:22;10.60;74.66
54540;SHT30;40438;52.992;18.604;2023-04-15T03:13:48;10.58;74.64
54540;SHT30;40438;52.992;18.604;2023-04-15T03:16:28;10.61;74.63
54540;SHT30;40438;52.992;18.604;2023-04-15T03:18:54;10.61;74.47
54540;SHT30;40438;52.992;18.604;2023-04-15T03:21:21;10.65;74.53
54540;SHT30;40438;52.992;18.604;2023-04-15T03:23:48;10.68;74.58
54540;SHT30;40438;52.992;18.604;2023-04-15T03:26:25;10.69;74.48
54540;SHT30;40438;52.992;18.604;2023-04-15T03:28:52;10.68;74.46
54540;SHT30;40438;52.992;18.604;2023-04-15T03:31:18;10.68;74.49
54540;SHT30;40438;52.992;18.604;2023-04-15T03:33:43;10.72;74.40
54540;SHT30;40438;52.992;18.604;2023-04-15T03:36:09;10.74;74.40
54540;SHT30;40438;52.992;18.604;2023-04-15T03:38:35;10.75;74.36
54540;SHT30;40438;52.992;18.604;2023-04-15T03:41:01;10.76;74.19
54540;SHT30;40438;52.992;18.604;2023-04-15T03:43:28;10.79;74.19
54540;SHT30;40438;52.992;18.604;2023-04-15T03:45:54;10.81;74.16
54540;SHT30;40438;52.992;18.604;2023-04-15T03:48:19;10.82;74.07
54540;SHT30;40438;52.992;18.604;2023-04-15T03:50:45;10.85;73.96
54540;SHT30;40438;52.992;18.604;2023-04-15T03:53:11;10.81;73.99
54540;SHT30;40438;52.992;18.604;2023-04-15T03:55:37;10.88;73.96
54540;SHT30;40438;52.992;18.604;2023-04-15T03:58:02;10.88;74.02
54540;SHT30;40438;52.992;18.604;2023-04-15T04:00:30;10.89;73.83
54540;SHT30;40438;52.992;18.604;2023-04-15T04:02:55;10.93;73.93
54540;SHT30;40438;52.992;18.604;2023-04-15T04:05:21;10.89;73.91
54540;SHT30;40438;52.992;18.604;2023-04-15T04:07:47;10.91;73.88
54540;SHT30;40438;52.992;18.604;2023-04-15T04:10:13;10.96;73.82
54540;SHT30;40438;52.992;18.604;2023-04-15T04:12:38;10.97;73.74
54540;SHT30;40438;52.992;18.604;2023-04-15T04:15:05;10.95;73.72
54540;SHT30;40438;52.992;18.604;2023-04-15T04:17:33;10.95;73.76
54540;SHT30;40438;52.992;18.604;2023-04-15T04:19:59;10.93;73.89
54540;SHT30;40438;52.992;18.604;2023-04-15T04:22:25;10.93;73.95
54540;SHT30;40438;52.992;18.604;2023-04-15T04:24:51;10.95;73.90
54540;SHT30;40438;52.992;18.604;2023-04-15T04:27:17;10.95;73.77
54540;SHT30;40438;52.992;18.604;2023-04-15T04:29:42;10.93;73.90
54540;SHT30;40438;52.992;18.604;2023-04-15T04:32:08;10.97;73.92
54540;SHT30;40438;52.992;18.604;2023-04-15T04:34:35;10.97;73.89
54540;SHT30;40438;52.992;18.604;2023-04-15T04:37:01;10.96;73.94
54540;SHT30;40438;52.992;18.604;2023-04-15T04:39:27;10.96;74.13
54540;SHT30;40438;52.992;18.604;2023-04-15T04:41:52;10.99;74.27
54540;SHT30;40438;52.992;18.604;2023-04-15T04:44:18;10.97;74.27
54540;SHT30;40438;52.992;18.604;2023-04-15T04:46:44;10.99;74.31
54540;SHT30;40438;52.992;18.604;2023-04-15T04:49:10;10.96;74.38
54540;SHT30;40438;52.992;18.604;2023-04-15T04:51:37;10.97;74.50
54540;SHT30;40438;52.992;18.604;2023-04-15T04:54:03;10.96;75.01
54540;SHT30;40438;52.992;18.604;2023-04-15T04:56:29;10.95;75.29
54540;SHT30;40438;52.992;18.604;2023-04-15T04:58:54;10.96;75.63
54540;SHT30;40438;52.992;18.604;2023-04-15T05:01:20;10.92;76.07
54540;SHT30;40438;52.992;18.604;2023-04-15T05:03:46;10.84;76.98
54540;SHT30;40438;52.992;18.604;2023-04-15T05:06:12;10.79;77.17
54540;SHT30;40438;52.992;18.604;2023-04-15T05:08:39;10.74;77.52
54540;SHT30;40438;52.992;18.604;2023-04-15T05:11:05;10.76;77.77
54540;SHT30;40438;52.992;18.604;2023-04-15T05:13:30;10.75;77.87
54540;SHT30;40438;52.992;18.604;2023-04-15T05:15:56;10.76;78.05
54540;SHT30;40438;52.992;18.604;2023-04-15T05:18:22;10.69;78.64
54540;SHT30;40438;52.992;18.604;2023-04-15T05:20:48;10.65;79.23
54540;SHT30;40438;52.992;18.604;2023-04-15T05:23:14;10.61;79.71
54540;SHT30;40438;52.992;18.604;2023-04-15T05:25:41;10.57;80.00
54540;SHT30;40438;52.992;18.604;2023-04-15T05:28:06;10.54;80.43
54540;SHT30;40438;52.992;18.604;2023-04-15T05:30:32;10.57;80.73
54540;SHT30;40438;52.992;18.604;2023-04-15T05:32:58;10.52;81.15
54540;SHT30;40438;52.992;18.604;2023-04-15T05:35:24;10.51;81.62
54540;SHT30;40438;52.992;18.604;2023-04-15T05:37:50;10.51;82.10
54540;SHT30;40438;52.992;18.604;2023-04-15T05:40:16;10.42;82.42
54540;SHT30;40438;52.992;18.604;2023-04-15T05:42:43;10.38;82.99
54540;SHT30;40438;52.992;18.604;2023-04-15T05:45:09;10.34;83.45
54540;SHT30;40438;52.992;18.604;2023-04-15T05:47:35;10.33;83.76
54540;SHT30;40438;52.992;18.604;2023-04-15T05:50:01;10.23;84.10
54540;SHT30;40438;52.992;18.604;2023-04-15T05:52:27;10.24;84.37
54540;SHT30;40438;52.992;18.604;2023-04-15T05:54:53;10.23;84.51
54540;SHT30;40438;52.992;18.604;2023-04-15T05:57:19;10.17;84.75
54540;SHT30;40438;52.992;18.604;2023-04-15T05:59:46;10.18;84.54
54540;SHT30;40438;52.992;18.604;2023-04-15T06:02:11;10.17;84.59
54540;SHT30;40438;52.992;18.604;2023-04-15T06:04:37;10.20;84.57
54540;SHT30;40438;52.992;18.604;2023-04-15T06:07:03;10.21;84.62
54540;SHT30;40438;52.992;18.604;2023-04-15T06:09:29;10.20;84.68
54540;SHT30;40438;52.992;18.604;2023-04-15T06:11:55;10.21;84.71
54540;SHT30;40438;52.992;18.604;2023-04-15T06:14:21;10.23;84.61
54540;SHT30;40438;52.992;18.604;2023-04-15T06:16:48;10.26;84.29
54540;SHT30;40438;52.992;18.604;2023-04-15T06:19:14;10.26;84.21
54540;SHT30;40438;52.992;18.604;2023-04-15T06:21:39;10.26;84.04
54540;SHT30;40438;52.992;18.604;2023-04-15T06:24:05;10.30;83.82
54540;SHT30;40438;52.992;18.604;2023-04-15T06:26:31;10.28;83.24
54540;SHT30;40438;52.992;18.604;2023-04-15T06:28:57;10.30;83.13
54540;SHT30;40438;52.992;18.604;2023-04-15T06:31:23;10.30;83.06
54540;SHT30;40438;52.992;18.604;2023-04-15T06:33:50;10.31;82.95
54540;SHT30;40438;52.992;18.604;2023-04-15T06:36:16;10.31;82.92
54540;SHT30;40438;52.992;18.604;2023-04-15T06:38:41;10.31;82.90
54540;SHT30;40438;52.992;18.604;2023-04-15T06:41:07;10.30;82.89
54540;SHT30;40438;52.992;18.604;2023-04-15T06:43:33;10.33;83.26
54540;SHT30;40438;52.992;18.604;2023-04-15T06:45:59;10.31;83.63
54540;SHT30;40438;52.992;18.604;2023-04-15T06:48:25;10.33;83.86
54540;SHT30;40438;52.992;18.604;2023-04-15T06:50:52;10.33;83.89
54540;SHT30;40438;52.992;18.604;2023-04-15T06:53:18;10.33;83.99
54540;SHT30;40438;52.992;18.604;2023-04-15T06:55:43;10.33;83.93
54540;SHT30;40438;52.992;18.604;2023-04-15T06:58:09;10.37;83.87
54540;SHT30;40438;52.992;18.604;2023-04-15T07:00:35;10.37;83.58
54540;SHT30;40438;52.992;18.604;2023-04-15T07:03:01;10.42;83.44
54540;SHT30;40438;52.992;18.604;2023-04-15T07:05:27;10.42;83.09
54540;SHT30;40438;52.992;18.604;2023-04-15T07:07:54;10.42;83.12
54540;SHT30;40438;52.992;18.604;2023-04-15T07:10:20;10.47;83.01
54540;SHT30;40438;52.992;18.604;2023-04-15T07:12:46;10.47;83.10
54540;SHT30;40438;52.992;18.604;2023-04-15T07:15:12;10.48;83.06
54540;SHT30;40438;52.992;18.604;2023-04-15T07:17:39;10.48;83.19
54540;SHT30;40438;52.992;18.604;2023-04-15T07:20:06;10.44;83.35
54540;SHT30;40438;52.992;18.604;2023-04-15T07:22:32;10.41;83.45
54540;SHT30;40438;52.992;18.604;2023-04-15T07:24:59;10.42;83.45
54540;SHT30;40438;52.992;18.604;2023-04-15T07:27:25;10.45;83.56
54540;SHT30;40438;52.992;18.604;2023-04-15T07:29:51;10.45;83.52
54540;SHT30;40438;52.992;18.604;2023-04-15T07:32:16;10.49;83.60
54540;SHT30;40438;52.992;18.604;2023-04-15T07:34:42;10.49;83.60
54540;SHT30;40438;52.992;18.604;2023-04-15T07:37:08;10.51;83.59
54540;SHT30;40438;52.992;18.604;2023-04-15T07:39:34;10.54;83.70
54540;SHT30;40438;52.992;18.604;2023-04-15T07:42:01;10.54;83.88
54540;SHT30;40438;52.992;18.604;2023-04-15T07:44:27;10.55;84.04
54540;SHT30;40438;52.992;18.604;2023-04-15T07:46:53;10.58;84.30
54540;SHT30;40438;52.992;18.604;2023-04-15T07:49:19;10.58;84.15
54540;SHT30;40438;52.992;18.604;2023-04-15T07:51:44;10.60;84.50
54540;SHT30;40438;52.992;18.604;2023-04-15T07:54:10;10.55;84.33
54540;SHT30;40438;52.992;18.604;2023-04-15T07:56:36;10.54;84.12
54540;SHT30;40438;52.992;18.604;2023-04-15T07:59:03;10.54;84.21
54540;SHT30;40438;52.992;18.604;2023-04-15T08:01:29;10.54;84.33
54540;SHT30;40438;52.992;18.604;2023-04-15T08:03:55;10.57;84.31
54540;SHT30;40438;52.992;18.604;2023-04-15T08:06:21;10.58;84.72
54540;SHT30;40438;52.992;18.604;2023-04-15T08:08:46;10.57;84.35
54540;SHT30;40438;52.992;18.604;2023-04-15T08:11:12;10.60;84.53
54540;SHT30;40438;52.992;18.604;2023-04-15T08:13:38;10.62;84.73
54540;SHT30;40438;52.992;18.604;2023-04-15T08:16:17;10.64;84.40
54540;SHT30;40438;52.992;18.604;2023-04-15T08:18:43;10.68;84.19
54540;SHT30;40438;52.992;18.604;2023-04-15T08:21:09;10.72;84.59
54540;SHT30;40438;52.992;18.604;2023-04-15T08:23:35;10.74;84.61
54540;SHT30;40438;52.992;18.604;2023-04-15T08:26:02;10.75;84.78
54540;SHT30;40438;52.992;18.604;2023-04-15T08:28:27;10.78;84.40
54540;SHT30;40438;52.992;18.604;2023-04-15T08:30:53;10.81;84.59
54540;SHT30;40438;52.992;18.604;2023-04-15T08:33:20;10.82;84.74
54540;SHT30;40438;52.992;18.604;2023-04-15T08:35:47;10.78;84.33
54540;SHT30;40438;52.992;18.604;2023-04-15T08:38:13;10.79;84.19
54540;SHT30;40438;52.992;18.604;2023-04-15T08:40:40;10.79;84.28
54540;SHT30;40438;52.992;18.604;2023-04-15T08:43:09;10.82;84.22
54540;SHT30;40438;52.992;18.604;2023-04-15T08:45:37;10.85;84.20
54540;SHT30;40438;52.992;18.604;2023-04-15T08:48:04;10.79;84.46
54540;SHT30;40438;52.992;18.604;2023-04-15T08:50:32;10.81;84.40
54540;SHT30;40438;52.992;18.604;2023-04-15T08:52:58;10.79;84.26
54540;SHT30;40438;52.992;18.604;2023-04-15T08:55:26;10.84;84.53
54540;SHT30;40438;52.992;18.604;2023-04-15T08:57:54;10.79;84.25
54540;SHT30;40438;52.992;18.604;2023-04-15T09:00:21;10.84;84.56
54540;SHT30;40438;52.992;18.604;2023-04-15T09:02:47;10.89;84.24
54540;SHT30;40438;52.992;18.604;2023-04-15T09:05:12;10.88;83.85
54540;SHT30;40438;52.992;18.604;2023-04-15T09:07:40;10.88;83.97
54540;SHT30;40438;52.992;18.604;2023-04-15T09:10:06;10.89;84.36
54540;SHT30;40438;52.992;18.604;2023-04-15T09:12:33;10.96;84.14
54540;SHT30;40438;52.992;18.604;2023-04-15T09:15:00;10.91;83.75
54540;SHT30;40438;52.992;18.604;2023-04-15T09:17:26;10.93;83.97
54540;SHT30;40438;52.992;18.604;2023-04-15T09:20:07;10.93;84.18
54540;SHT30;40438;52.992;18.604;2023-04-15T09:22:33;10.91;84.42
54540;SHT30;40438;52.992;18.604;2023-04-15T09:25:00;10.91;84.01
54540;SHT30;40438;52.992;18.604;2023-04-15T09:27:26;10.92;84.57
54540;SHT30;40438;52.992;18.604;2023-04-15T09:29:52;10.88;84.45
54540;SHT30;40438;52.992;18.604;2023-04-15T09:32:19;10.85;84.53
54540;SHT30;40438;52.992;18.604;2023-04-15T09:34:44;10.88;84.64
54540;SHT30;40438;52.992;18.604;2023-04-15T09:37:10;10.88;84.50
54540;SHT30;40438;52.992;18.604;2023-04-15T09:39:46;10.88;84.27
54540;SHT30;40438;52.992;18.604;2023-04-15T09:42:14;10.92;84.72
54540;SHT30;40438;52.992;18.604;2023-04-15T09:44:40;10.91;84.61
54540;SHT30;40438;52.992;18.604;2023-04-15T09:47:06;10.91;84.37
54540;SHT30;40438;52.992;18.604;2023-04-15T09:49:31;10.91;84.23
54540;SHT30;40438;52.992;18.604;2023-04-15T09:51:59;10.93;84.33
54540;SHT30;40438;52.992;18.604;2023-04-15T09:54:32;10.92;84.21
54540;SHT30;40438;52.992;18.604;2023-04-15T09:57:04;10.82;84.23
54540;SHT30;40438;52.992;18.604;2023-04-15T09:59:31;10.79;84.25
54540;SHT30;40438;52.992;18.604;2023-04-15T10:01:57;10.82;84.26
54540;SHT30;40438;52.992;18.604;2023-04-15T10:04:24;10.82;83.89
54540;SHT30;40438;52.992;18.604;2023-04-15T10:06:51;10.79;84.08
54540;SHT30;40438;52.992;18.604;2023-04-15T10:09:17;10.76;84.23
54540;SHT30;40438;52.992;18.604;2023-04-15T10:11:43;10.81;84.08
54540;SHT30;40438;52.992;18.604;2023-04-15T10:14:10;10.85;84.01
54540;SHT30;40438;52.992;18.604;2023-04-15T10:16:40;10.85;83.88
54540;SHT30;40438;52.992;18.604;2023-04-15T10:19:08;10.85;83.47
54540;SHT30;40438;52.992;18.604;2023-04-15T10:21:35;10.84;83.38
54540;SHT30;40438;52.992;18.604;2023-04-15T10:24:02;10.89;83.55
54540;SHT30;40438;52.992;18.604;2023-04-15T10:26:28;10.92;83.66
54540;SHT30;40438;52.992;18.604;2023-04-15T10:28:55;10.91;83.03
54540;SHT30;40438;52.992;18.604;2023-04-15T10:31:21;10.89;82.38
54540;SHT30;40438;52.992;18.604;2023-04-15T10:33:49;10.92;83.00
54540;SHT30;40438;52.992;18.604;2023-04-15T10:36:16;10.89;82.81
54540;SHT30;40438;52.992;18.604;2023-04-15T10:38:43;10.91;82.84
54540;SHT30;40438;52.992;18.604;2023-04-15T10:41:17;10.86;82.52
54540;SHT30;40438;52.992;18.604;2023-04-15T10:43:51;10.85;82.76
54540;SHT30;40438;52.992;18.604;2023-04-15T10:46:21;10.91;82.61
54540;SHT30;40438;52.992;18.604;2023-04-15T10:48:50;10.91;82.81
54540;SHT30;40438;52.992;18.604;2023-04-15T10:51:16;10.85;82.61
54540;SHT30;40438;52.992;18.604;2023-04-15T10:53:55;10.84;82.55
54540;SHT30;40438;52.992;18.604;2023-04-15T10:56:21;10.85;82.91
54540;SHT30;40438;52.992;18.604;2023-04-15T10:58:47;10.85;82.77
54540;SHT30;40438;52.992;18.604;2023-04-15T11:01:13;10.85;83.07
54540;SHT30;40438;52.992;18.604;2023-04-15T11:03:41;10.84;83.27
54540;SHT30;40438;52.992;18.604;2023-04-15T11:06:08;10.78;83.31
54540;SHT30;40438;52.992;18.604;2023-04-15T11:08:56;10.75;83.54
54540;SHT30;40438;52.992;18.604;2023-04-15T11:11:22;10.71;84.00
54540;SHT30;40438;52.992;18.604;2023-04-15T11:13:49;10.75;84.41
54540;SHT30;40438;52.992;18.604;2023-04-15T11:16:15;10.74;84.19
54540;SHT30;40438;52.992;18.604;2023-04-15T11:18:41;10.76;84.17
54540;SHT30;40438;52.992;18.604;2023-04-15T11:21:08;10.78;84.50
54540;SHT30;40438;52.992;18.604;2023-04-15T11:23:39;10.82;84.79
54540;SHT30;40438;52.992;18.604;2023-04-15T11:26:06;10.86;84.56
54540;SHT30;40438;52.992;18.604;2023-04-15T11:28:33;10.86;84.55
54540;SHT30;40438;52.992;18.604;2023-04-15T11:31:05;10.92;84.87
54540;SHT30;40438;52.992;18.604;2023-04-15T11:33:31;10.95;84.62
54540;SHT30;40438;52.992;18.604;2023-04-15T11:35:57;10.95;84.50
54540;SHT30;40438;52.992;18.604;2023-04-15T11:38:25;10.99;84.52
54540;SHT30;40438;52.992;18.604;2023-04-15T11:40:50;11.02;84.76
54540;SHT30;40438;52.992;18.604;2023-04-15T11:43:18;11.00;84.48
54540;SHT30;40438;52.992;18.604;2023-04-15T11:45:49;11.00;84.17
54540;SHT30;40438;52.992;18.604;2023-04-15T11:48:15;11.02;84.62
54540;SHT30;40438;52.992;18.604;2023-04-15T11:50:41;11.03;84.54
54540;SHT30;40438;52.992;18.604;2023-04-15T11:53:10;11.03;84.84
54540;SHT30;40438;52.992;18.604;2023-04-15T11:55:45;10.99;84.80
54540;SHT30;40438;52.992;18.604;2023-04-15T11:58:12;10.99;85.09
54540;SHT30;40438;52.992;18.604;2023-04-15T12:00:39;11.00;85.28
54540;SHT30;40438;52.992;18.604;2023-04-15T12:03:12;11.02;85.58
54540;SHT30;40438;52.992;18.604;2023-04-15T12:06:12;10.99;85.39
54540;SHT30;40438;52.992;18.604;2023-04-15T12:08:58;10.96;85.29
54540;SHT30;40438;52.992;18.604;2023-04-15T12:11:38;10.93;85.19
54540;SHT30;40438;52.992;18.604;2023-04-15T12:14:06;11.00;85.49
54540;SHT30;40438;52.992;18.604;2023-04-15T12:16:33;11.00;85.53
54540;SHT30;40438;52.992;18.604;2023-04-15T12:19:02;11.03;85.78
54540;SHT30;40438;52.992;18.604;2023-04-15T12:21:34;11.03;85.99
54540;SHT30;40438;52.992;18.604;2023-04-15T12:24:01;11.09;85.93
54540;SHT30;40438;52.992;18.604;2023-04-15T12:26:31;11.19;86.18
54540;SHT30;40438;52.992;18.604;2023-04-15T12:29:01;11.24;86.58
54540;SHT30;40438;52.992;18.604;2023-04-15T12:31:28;11.33;86.19
54540;SHT30;40438;52.992;18.604;2023-04-15T12:33:54;11.37;85.92
54540;SHT30;40438;52.992;18.604;2023-04-15T12:36:20;11.34;85.35
54540;SHT30;40438;52.992;18.604;2023-04-15T12:38:46;11.31;85.51
54540;SHT30;40438;52.992;18.604;2023-04-15T12:41:12;11.34;85.13
54540;SHT30;40438;52.992;18.604;2023-04-15T12:43:37;11.30;85.18
54540;SHT30;40438;52.992;18.604;2023-04-15T12:46:05;11.34;85.24
54540;SHT30;40438;52.992;18.604;2023-04-15T12:48:30;11.33;85.38
54540;SHT30;40438;52.992;18.604;2023-04-15T12:50:56;11.34;84.91
54540;SHT30;40438;52.992;18.604;2023-04-15T12:53:22;11.31;84.78
54540;SHT30;40438;52.992;18.604;2023-04-15T12:55:48;11.33;84.92
54540;SHT30;40438;52.992;18.604;2023-04-15T12:58:13;11.36;84.95
54540;SHT30;40438;52.992;18.604;2023-04-15T13:00:39;11.37;85.08
54540;SHT30;40438;52.992;18.604;2023-04-15T13:03:06;11.34;84.69
54540;SHT30;40438;52.992;18.604;2023-04-15T13:05:32;11.36;84.93
54540;SHT30;40438;52.992;18.604;2023-04-15T13:07:58;11.37;85.19
54540;SHT30;40438;52.992;18.604;2023-04-15T13:10:24;11.42;85.17
54540;SHT30;40438;52.992;18.604;2023-04-15T13:12:51;11.40;85.55
54540;SHT30;40438;52.992;18.604;2023-04-15T13:15:17;11.34;84.79
54540;SHT30;40438;52.992;18.604;2023-04-15T13:17:42;11.33;84.85
54540;SHT30;40438;52.992;18.604;2023-04-15T13:20:10;11.31;84.90
54540;SHT30;40438;52.992;18.604;2023-04-15T13:22:36;11.33;85.00
54540;SHT30;40438;52.992;18.604;2023-04-15T13:25:01;11.37;85.11
54540;SHT30;40438;52.992;18.604;2023-04-15T13:27:27;11.39;85.45
54540;SHT30;40438;52.992;18.604;2023-04-15T13:29:53;11.34;84.91
54540;SHT30;40438;52.992;18.604;2023-04-15T13:32:19;11.36;84.99
54540;SHT30;40438;52.992;18.604;2023-04-15T13:34:45;11.33;84.91
54540;SHT30;40438;52.992;18.604;2023-04-15T13:37:12;11.31;85.07
54540;SHT30;40438;52.992;18.604;2023-04-15T13:39:38;11.30;85.27
54540;SHT30;40438;52.992;18.604;2023-04-15T13:42:04;11.31;85.35
54540;SHT30;40438;52.992;18.604;2023-04-15T13:44:29;11.30;85.16
54540;SHT30;40438;52.992;18.604;2023-04-15T13:46:55;11.31;85.15
54540;SHT30;40438;52.992;18.604;2023-04-15T13:49:21;11.33;85.12
54540;SHT30;40438;52.992;18.604;2023-04-15T13:51:47;11.36;85.09
54540;SHT30;40438;52.992;18.604;2023-04-15T13:54:14;11.43;85.40
54540;SHT30;40438;52.992;18.604;2023-04-15T13:56:40;11.46;85.31
54540;SHT30;40438;52.992;18.604;2023-04-15T13:59:05;11.44;84.88
54540;SHT30;40438;52.992;18.604;2023-04-15T14:01:31;11.44;84.77
54540;SHT30;40438;52.992;18.604;2023-04-15T14:03:57;11.48;84.90
54540;SHT30;40438;52.992;18.604;2023-04-15T14:06:23;11.50;85.02
54540;SHT30;40438;52.992;18.604;2023-04-15T14:08:49;11.50;85.20
54540;SHT30;40438;52.992;18.604;2023-04-15T14:11:16;11.46;85.03
54540;SHT30;40438;52.992;18.604;2023-04-15T14:13:42;11.42;84.93
54540;SHT30;40438;52.992;18.604;2023-04-15T14:16:08;11.43;85.11
54540;SHT30;40438;52.992;18.604;2023-04-15T14:18:33;11.44;85.18
54540;SHT30;40438;52.992;18.604;2023-04-15T14:20:59;11.44;85.51
54540;SHT30;40438;52.992;18.604;2023-04-15T14:23:25;11.43;85.38
54540;SHT30;40438;52.992;18.604;2023-04-15T14:25:52;11.47;85.41
54540;SHT30;40438;52.992;18.604;2023-04-15T14:28:19;11.44;85.26
54540;SHT30;40438;52.992;18.604;2023-04-15T14:30:45;11.47;85.44
54540;SHT30;40438;52.992;18.604;2023-04-15T14:33:11;11.39;85.13
54540;SHT30;40438;52.992;18.604;2023-04-15T14:35:37;11.40;84.93
54540;SHT30;40438;52.992;18.604;2023-04-15T14:38:02;11.40;85.02
54540;SHT30;40438;52.992;18.604;2023-04-15T14:40:28;11.40;85.47
54540;SHT30;40438;52.992;18.604;2023-04-15T14:42:54;11.40;85.39
54540;SHT30;40438;52.992;18.604;2023-04-15T14:45:21;11.47;85.57
54540;SHT30;40438;52.992;18.604;2023-04-15T14:47:47;11.43;85.27
54540;SHT30;40438;52.992;18.604;2023-04-15T14:50:13;11.44;85.41
54540;SHT30;40438;52.992;18.604;2023-04-15T14:52:39;11.40;85.11
54540;SHT30;40438;52.992;18.604;2023-04-15T14:55:05;11.46;85.11
54540;SHT30;40438;52.992;18.604;2023-04-15T14:57:31;11.42;84.95
54540;SHT30;40438;52.992;18.604;2023-04-15T14:59:57;11.47;84.72
54540;SHT30;40438;52.992;18.604;2023-04-15T15:02:24;11.47;84.81
54540;SHT30;40438;52.992;18.604;2023-04-15T15:04:50;11.46;84.51
54540;SHT30;40438;52.992;18.604;2023-04-15T15:07:16;11.44;84.15
54540;SHT30;40438;52.992;18.604;2023-04-15T15:09:42;11.48;84.48
54540;SHT30;40438;52.992;18.604;2023-04-15T15:12:07;11.53;84.71